createdAt,value
2018-12-29T00:01:57.990Z,-0.60
2018-12-29T00:04:40.192Z,-0.60
2018-12-29T00:07:22.227Z,-0.50
2018-12-29T00:10:04.542Z,-0.70
2018-12-29T00:12:35.579Z,-0.80
2018-12-29T00:15:24.521Z,-0.70
2018-12-29T00:18:06.832Z,-0.50
2018-12-29T00:20:50.222Z,-0.60
2018-12-29T00:23:32.314Z,-0.90
2018-12-29T00:26:01.833Z,-1.10
2018-12-29T00:28:50.746Z,-0.80
2018-12-29T00:31:33.189Z,-0.50
2018-12-29T00:34:15.046Z,-0.80
2018-12-29T00:36:57.278Z,-1.00
2018-12-29T00:39:39.053Z,-1.00
2018-12-29T00:42:08.567Z,-1.10
2018-12-29T00:45:02.458Z,-1.10
2018-12-29T00:48:00.309Z,-1.10
2018-12-29T00:50:42.707Z,-1.20
2018-12-29T00:53:25.098Z,-1.30
2018-12-29T00:56:06.650Z,-1.20
2018-12-29T00:58:36.447Z,-1.20
2018-12-29T01:01:26.881Z,-1.10
2018-12-29T01:04:08.944Z,-0.80
2018-12-29T01:06:52.343Z,-1.10
2018-12-29T01:09:34.495Z,-1.20
2018-12-29T01:12:05.212Z,-1.30
2018-12-29T01:14:54.055Z,-1.20
2018-12-29T01:17:23.570Z,-1.30
2018-12-29T01:20:30.438Z,-1.20
2018-12-29T01:23:12.368Z,-1.30
2018-12-29T01:25:55.599Z,-1.30
2018-12-29T01:28:37.144Z,-1.30
2018-12-29T01:31:18.718Z,-1.10
2018-12-29T01:33:48.230Z,-0.90
2018-12-29T01:36:37.190Z,-0.80
2018-12-29T01:39:19.583Z,-0.70
2018-12-29T01:42:01.943Z,-0.60
2018-12-29T01:44:44.079Z,-0.50
2018-12-29T01:47:14.799Z,-0.60
2018-12-29T01:56:19.402Z,-0.60
2018-12-29T01:59:01.102Z,-0.70
2018-12-29T02:01:32.074Z,-0.80
2018-12-29T02:04:21.003Z,-0.80
2018-12-29T02:07:02.521Z,-0.70
2018-12-29T02:09:44.946Z,-0.70
2018-12-29T02:12:15.626Z,-0.80
2018-12-29T02:15:04.573Z,-1.10
2018-12-29T02:17:35.626Z,-1.10
2018-12-29T02:20:24.579Z,-0.90
2018-12-29T02:23:06.629Z,-0.90
2018-12-29T02:25:50.008Z,-0.90
2018-12-29T02:28:32.706Z,-1.10
2018-12-29T02:31:15.988Z,-0.90
2018-12-29T02:33:57.576Z,-1.00
2018-12-29T02:36:39.063Z,-0.80
2018-12-29T02:39:20.886Z,-0.70
2018-12-29T02:42:04.101Z,-1.20
2018-12-29T02:44:46.451Z,-1.40
2018-12-29T02:47:17.149Z,-1.30
2018-12-29T02:49:46.666Z,-1.30
2018-12-29T02:52:17.624Z,-1.30
2018-12-29T02:55:06.645Z,-1.30
2018-12-29T02:57:37.604Z,-1.40
2018-12-29T03:00:26.475Z,-1.30
2018-12-29T03:03:08.598Z,-1.40
2018-12-29T03:05:52.088Z,-1.30
2018-12-29T03:08:34.216Z,-1.30
2018-12-29T03:11:17.149Z,-1.30
2018-12-29T03:13:58.498Z,-1.40
2018-12-29T03:19:37.564Z,-1.40
2018-12-29T03:22:26.502Z,-1.10
2018-12-29T03:25:08.411Z,-1.20
2018-12-29T03:27:51.950Z,-1.20
2018-12-29T03:30:21.427Z,-1.20
2018-12-29T03:32:52.423Z,-1.20
2018-12-29T03:38:15.386Z,-1.30
2018-12-29T03:40:58.813Z,-1.30
2018-12-29T03:43:40.891Z,-1.30
2018-12-29T03:46:10.414Z,-1.30
2018-12-29T03:48:59.322Z,-1.30
2018-12-29T03:51:30.311Z,-1.30
2018-12-29T03:53:59.726Z,-1.20
2018-12-29T03:56:41.229Z,-1.20
2018-12-29T03:59:10.710Z,-1.20
2018-12-29T04:01:52.251Z,-1.20
2018-12-29T04:04:34.335Z,-1.20
2018-12-29T04:07:17.431Z,-1.20
2018-12-29T04:09:59.843Z,-1.10
2018-12-29T04:12:29.359Z,-1.10
2018-12-29T04:15:18.356Z,-1.00
2018-12-29T04:18:01.279Z,-1.00
2018-12-29T04:20:30.758Z,-1.10
2018-12-29T04:23:19.661Z,-1.00
2018-12-29T04:26:03.246Z,-1.00
2018-12-29T04:28:32.702Z,-1.00
2018-12-29T04:31:23.087Z,-0.90
2018-12-29T04:34:05.385Z,-0.90
2018-12-29T04:36:36.062Z,-0.80
2018-12-29T04:39:26.570Z,-0.80
2018-12-29T04:45:19.739Z,-0.70
2018-12-29T04:48:10.170Z,-0.80
2018-12-29T04:50:39.651Z,-0.80
2018-12-29T04:53:28.611Z,-0.80
2018-12-29T04:56:10.162Z,-0.60
2018-12-29T04:58:52.359Z,-0.80
2018-12-29T05:01:34.321Z,-0.80
2018-12-29T05:04:16.574Z,-0.80
2018-12-29T05:06:57.994Z,-0.80
2018-12-29T05:09:40.196Z,-0.90
2018-12-29T05:12:22.155Z,-0.80
2018-12-29T05:15:04.314Z,-0.80
2018-12-29T05:17:35.107Z,-0.80
2018-12-29T05:20:04.551Z,-0.90
2018-12-29T05:22:35.581Z,-0.80
2018-12-29T05:25:24.531Z,-0.80
2018-12-29T05:28:06.200Z,-0.80
2018-12-29T05:30:35.736Z,-0.90
2018-12-29T05:33:24.592Z,-0.90
2018-12-29T05:35:54.041Z,-0.90
2018-12-29T05:38:42.887Z,-1.00
2018-12-29T05:41:24.280Z,-0.90
2018-12-29T05:44:06.486Z,-0.90
2018-12-29T05:46:37.112Z,-0.80
2018-12-29T05:49:25.950Z,-0.80
2018-12-29T05:52:08.172Z,-0.80
2018-12-29T05:54:50.456Z,-0.60
2018-12-29T05:57:21.183Z,-0.40
2018-12-29T06:00:10.143Z,-0.40
2018-12-29T06:02:41.122Z,-0.30
2018-12-29T06:05:23.174Z,-0.30
2018-12-29T06:08:05.387Z,-0.50
2018-12-29T06:10:47.295Z,-0.70
2018-12-29T06:13:28.699Z,-0.70
2018-12-29T06:16:12.015Z,-0.70
2018-12-29T06:18:41.417Z,-0.80
2018-12-29T06:21:31.839Z,-0.80
2018-12-29T06:24:01.259Z,-0.80
2018-12-29T06:26:30.779Z,-0.70
2018-12-29T06:29:12.778Z,-0.80
2018-12-29T06:31:55.417Z,-0.80
2018-12-29T06:34:37.801Z,-0.80
2018-12-29T06:37:19.774Z,-0.80
2018-12-29T06:40:01.981Z,-0.80
2018-12-29T06:42:32.971Z,-0.80
2018-12-29T06:45:02.455Z,-0.80
2018-12-29T06:47:33.447Z,-0.80
2018-12-29T06:53:27.394Z,-0.90
2018-12-29T06:56:09.589Z,-0.90
2018-12-29T06:58:39.045Z,-0.90
2018-12-29T07:01:29.497Z,-0.90
2018-12-29T07:04:11.540Z,-0.90
2018-12-29T07:06:54.747Z,-0.90
2018-12-29T07:09:24.188Z,-1.00
2018-12-29T07:12:14.592Z,-0.90
2018-12-29T07:14:56.062Z,-1.00
2018-12-29T07:17:37.611Z,-0.90
2018-12-29T07:20:19.059Z,-0.90
2018-12-29T07:22:49.799Z,-0.80
2018-12-29T07:25:38.943Z,-0.80
2018-12-29T07:28:08.361Z,-0.80
2018-12-29T07:30:57.302Z,-0.70
2018-12-29T07:33:39.680Z,-0.60
2018-12-29T07:36:42.440Z,-0.50
2018-12-29T07:39:24.454Z,-0.60
2018-12-29T07:42:06.571Z,-0.60
2018-12-29T07:44:48.563Z,-0.60
2018-12-29T07:47:31.319Z,-0.50
2018-12-29T07:50:13.719Z,-0.60
2018-12-29T07:52:57.044Z,-0.40
2018-12-29T07:55:26.558Z,-0.40
2018-12-29T07:58:15.396Z,-0.50
2018-12-29T08:00:58.339Z,-0.50
2018-12-29T08:03:40.694Z,-0.30
2018-12-29T08:06:24.092Z,-0.30
2018-12-29T08:09:05.628Z,-0.30
2018-12-29T08:11:51.230Z,-0.30
2018-12-29T08:14:33.017Z,-0.30
2018-12-29T08:17:17.327Z,-0.30
2018-12-29T08:19:59.060Z,-0.30
2018-12-29T08:22:28.510Z,-0.30
2018-12-29T08:25:17.351Z,-0.30
2018-12-29T08:27:48.342Z,-0.10
2018-12-29T08:30:37.182Z,0.00
2018-12-29T08:33:06.693Z,0.10
2018-12-29T08:35:55.536Z,0.10
2018-12-29T08:38:37.776Z,0.10
2018-12-29T08:41:08.455Z,0.00
2018-12-29T08:43:57.335Z,0.10
2018-12-29T08:46:40.719Z,0.10
2018-12-29T08:49:22.516Z,0.10
2018-12-29T08:52:05.451Z,0.20
2018-12-29T08:54:47.500Z,0.20
2018-12-29T08:57:18.190Z,0.30
2018-12-29T09:00:07.397Z,0.30
2018-12-29T09:02:38.351Z,0.20
2018-12-29T09:05:27.291Z,0.20
2018-12-29T09:08:09.030Z,0.20
2018-12-29T09:10:39.011Z,0.30
2018-12-29T09:13:27.955Z,0.20
2018-12-29T09:16:10.361Z,0.40
2018-12-29T09:18:39.871Z,0.30
2018-12-29T09:21:10.815Z,0.30
2018-12-29T09:23:52.498Z,0.40
2018-12-29T09:26:21.907Z,0.40
2018-12-29T09:28:51.345Z,0.40
2018-12-29T09:31:20.767Z,0.30
2018-12-29T09:34:09.642Z,0.30
2018-12-29T09:36:53.469Z,0.30
2018-12-29T09:39:35.367Z,0.40
2018-12-29T09:42:16.731Z,0.40
2018-12-29T09:44:58.098Z,0.60
2018-12-29T09:47:41.637Z,0.50
2018-12-29T09:50:11.029Z,0.50
2018-12-29T09:52:41.974Z,0.60
2018-12-29T09:55:23.649Z,0.60
2018-12-29T09:58:05.056Z,0.60
2018-12-29T10:00:34.559Z,0.70
2018-12-29T10:03:04.041Z,0.70
2018-12-29T10:05:33.568Z,0.60
2018-12-29T10:08:15.566Z,0.60
2018-12-29T10:10:57.604Z,0.60
2018-12-29T10:13:27.014Z,0.60
2018-12-29T10:15:56.458Z,0.60
2018-12-29T10:18:37.920Z,0.60
2018-12-29T10:21:08.626Z,0.70
2018-12-29T10:23:38.218Z,0.70
2018-12-29T10:26:09.208Z,0.70
2018-12-29T10:28:38.615Z,0.80
2018-12-29T10:31:09.601Z,0.70
2018-12-29T10:33:39.079Z,0.70
2018-12-29T10:36:20.588Z,0.80
2018-12-29T10:39:02.910Z,0.90
2018-12-29T10:41:46.528Z,1.00
2018-12-29T10:44:15.935Z,1.00
2018-12-29T10:46:57.374Z,1.00
2018-12-29T10:49:26.853Z,0.90
2018-12-29T10:52:17.262Z,0.90
2018-12-29T10:54:59.575Z,0.90
2018-12-29T10:57:41.774Z,0.90
2018-12-29T11:00:12.521Z,0.80
2018-12-29T11:03:00.171Z,1.00
2018-12-29T11:05:43.504Z,1.20
2018-12-29T11:08:24.878Z,1.20
2018-12-29T11:11:08.593Z,1.30
2018-12-29T11:13:50.959Z,1.30
2018-12-29T11:16:20.471Z,1.50
2018-12-29T11:19:09.321Z,1.30
2018-12-29T11:21:38.838Z,1.20
2018-12-29T11:24:45.617Z,1.30
2018-12-29T11:27:28.930Z,1.30
2018-12-29T11:33:16.952Z,1.40
2018-12-29T11:36:05.799Z,1.40
2018-12-29T11:38:35.245Z,1.50
2018-12-29T11:41:24.237Z,1.40
2018-12-29T11:44:06.004Z,1.50
2018-12-29T11:46:49.249Z,1.40
2018-12-29T11:49:30.944Z,1.40
2018-12-29T11:52:14.446Z,1.50
2018-12-29T11:54:43.873Z,1.50
2018-12-29T11:57:32.907Z,1.50
2018-12-29T12:00:14.827Z,1.50
2018-12-29T12:02:58.394Z,1.60
2018-12-29T12:05:40.695Z,1.50
2018-12-29T12:08:22.861Z,1.50
2018-12-29T12:11:06.168Z,1.60
2018-12-29T12:13:35.679Z,1.50
2018-12-29T12:16:24.579Z,1.50
2018-12-29T12:19:25.620Z,1.60
2018-12-29T12:22:09.112Z,1.50
2018-12-29T12:24:50.683Z,1.60
2018-12-29T12:27:33.538Z,1.60
2018-12-29T12:30:15.829Z,1.70
2018-12-29T12:32:59.170Z,1.60
2018-12-29T12:35:40.700Z,1.70
2018-12-29T12:38:22.878Z,1.60
2018-12-29T12:41:06.285Z,1.60
2018-12-29T12:43:48.592Z,1.60
2018-12-29T12:46:30.242Z,1.70
2018-12-29T12:49:12.816Z,1.50
2018-12-29T12:51:55.198Z,1.50
2018-12-29T12:54:36.807Z,1.50
2018-12-29T12:57:18.891Z,1.50
2018-12-29T13:00:01.547Z,1.60
2018-12-29T13:02:45.243Z,1.50
2018-12-29T13:05:27.779Z,1.50
2018-12-29T13:08:09.441Z,1.50
2018-12-29T13:10:38.955Z,1.50
2018-12-29T13:13:27.862Z,1.50
2018-12-29T13:16:11.859Z,1.50
2018-12-29T13:18:41.335Z,1.40
2018-12-29T13:21:12.330Z,1.40
2018-12-29T13:23:53.814Z,1.40
2018-12-29T13:26:36.444Z,1.40
2018-12-29T13:29:18.006Z,1.40
2018-12-29T13:31:59.594Z,1.40
2018-12-29T13:34:41.885Z,1.30
2018-12-29T13:37:24.627Z,1.40
2018-12-29T13:40:06.206Z,1.40
2018-12-29T13:42:49.719Z,1.40
2018-12-29T13:45:31.930Z,1.50
2018-12-29T13:48:20.565Z,1.50
2018-12-29T13:50:45.250Z,1.40
2018-12-29T13:53:57.237Z,1.40
2018-12-29T13:56:46.402Z,1.40
2018-12-29T13:59:35.332Z,1.40
2018-12-29T14:02:18.596Z,1.40
2018-12-29T14:05:00.083Z,1.30
2018-12-29T14:14:29.217Z,1.40
2018-12-29T14:17:11.436Z,1.40
2018-12-29T14:19:40.951Z,1.40
2018-12-29T14:22:31.324Z,1.40
2018-12-29T14:25:13.588Z,1.40
2018-12-29T14:27:44.263Z,1.40
2018-12-29T14:30:33.139Z,1.40
2018-12-29T14:33:14.760Z,1.50
2018-12-29T14:35:58.311Z,1.40
2018-12-29T14:38:40.647Z,1.40
2018-12-29T14:41:24.215Z,1.40
2018-12-29T14:44:05.779Z,1.40
2018-12-29T14:46:48.043Z,1.40
2018-12-29T14:49:30.559Z,1.40
2018-12-29T14:52:00.039Z,1.30
2018-12-29T14:54:48.912Z,1.40
2018-12-29T14:57:30.356Z,1.40
2018-12-29T14:59:59.862Z,1.40
2018-12-29T15:02:30.820Z,1.40
2018-12-29T15:05:07.687Z,1.40
2018-12-29T15:23:13.938Z,1.30
2018-12-29T15:25:43.450Z,1.40
2018-12-29T15:28:13.033Z,1.40
2018-12-29T15:30:44.511Z,1.30
2018-12-29T15:33:14.009Z,1.30
2018-12-29T15:35:43.517Z,1.30
2018-12-29T15:38:12.937Z,1.30
2018-12-29T15:40:42.370Z,1.30
2018-12-29T15:43:11.851Z,1.30
2018-12-29T15:45:42.760Z,1.30
2018-12-29T15:48:12.171Z,1.40
2018-12-29T15:50:42.981Z,1.40
2018-12-29T15:53:12.386Z,1.30
2018-12-29T15:55:41.863Z,1.30
2018-12-29T15:58:11.774Z,1.40
2018-12-29T16:00:42.656Z,1.40
2018-12-29T16:03:12.580Z,1.30
2018-12-29T16:05:42.059Z,1.40
2018-12-29T16:19:08.187Z,1.40
2018-12-29T16:21:38.574Z,1.40
2018-12-29T16:24:08.055Z,1.40
2018-12-29T16:26:38.783Z,1.40
2018-12-29T16:29:08.263Z,1.40
2018-12-29T16:31:39.082Z,1.40
2018-12-29T16:34:09.163Z,1.40
2018-12-29T16:36:38.612Z,1.40
2018-12-29T16:39:08.056Z,1.50
2018-12-29T16:41:38.938Z,1.50
2018-12-29T16:44:08.447Z,1.50
2018-12-29T16:46:39.534Z,1.50
2018-12-29T16:49:08.975Z,1.50
2018-12-29T16:51:39.666Z,1.50
2018-12-29T16:54:09.108Z,1.50
2018-12-29T16:56:40.195Z,1.50
2018-12-29T16:59:09.645Z,1.50
2018-12-29T17:01:40.316Z,1.50
2018-12-29T17:04:09.760Z,1.50
2018-12-29T17:06:39.440Z,1.50
2018-12-29T17:09:09.260Z,1.50
2018-12-29T17:11:40.043Z,1.50
2018-12-29T17:14:09.483Z,1.60
2018-12-29T17:16:40.770Z,1.50
2018-12-29T17:19:14.697Z,1.60
2018-12-29T17:21:41.325Z,1.60
2018-12-29T17:24:11.215Z,1.60
2018-12-29T17:26:40.713Z,1.60
2018-12-29T17:29:10.166Z,1.60
2018-12-29T17:31:41.085Z,1.60
2018-12-29T17:34:10.758Z,1.60
2018-12-29T17:36:42.060Z,1.60
2018-12-29T17:39:11.859Z,1.60
2018-12-29T17:41:41.379Z,1.70
2018-12-29T17:44:10.914Z,1.70
2018-12-29T17:46:41.677Z,1.70
2018-12-29T17:49:11.468Z,1.80
2018-12-29T17:51:40.976Z,1.80
2018-12-29T17:54:10.460Z,1.90
2018-12-29T17:56:41.573Z,1.80
2018-12-29T17:59:11.556Z,1.70
2018-12-29T18:01:41.187Z,1.70
2018-12-29T18:04:10.679Z,1.70
2018-12-29T18:06:41.503Z,1.70
2018-12-29T18:09:10.979Z,1.70
2018-12-29T18:11:40.495Z,1.70
2018-12-29T18:14:09.906Z,1.70
2018-12-29T18:16:39.342Z,1.70
2018-12-29T18:19:09.154Z,1.70
2018-12-29T18:21:39.866Z,1.70
2018-12-29T18:24:09.352Z,1.60
2018-12-29T18:26:40.054Z,1.60
2018-12-29T18:29:09.735Z,1.70
2018-12-29T18:31:41.108Z,1.70
2018-12-29T18:34:10.678Z,1.70
2018-12-29T18:36:40.456Z,1.70
2018-12-29T18:39:09.968Z,1.70
2018-12-29T18:41:39.547Z,1.70
2018-12-29T18:44:09.298Z,1.70
2018-12-29T18:46:39.990Z,1.70
2018-12-29T18:49:09.423Z,1.70
2018-12-29T18:51:40.313Z,1.80
2018-12-29T18:54:09.753Z,1.80
2018-12-29T18:56:45.505Z,1.80
2018-12-29T18:59:11.495Z,1.70
2018-12-29T19:01:40.983Z,1.70
2018-12-29T19:04:10.423Z,1.70
2018-12-29T19:06:41.324Z,1.70
2018-12-29T19:09:12.629Z,1.70
2018-12-29T19:11:41.802Z,1.70
2018-12-29T19:14:11.630Z,1.70
2018-12-29T19:16:41.078Z,1.70
2018-12-29T19:19:10.787Z,1.70
2018-12-29T19:21:41.475Z,1.70
2018-12-29T19:24:11.298Z,1.70
2018-12-29T19:26:42.387Z,1.70
2018-12-29T19:29:11.835Z,1.70
2018-12-29T19:31:44.801Z,1.70
2018-12-29T19:34:12.394Z,1.70
2018-12-29T19:36:41.889Z,1.70
2018-12-29T19:39:11.696Z,1.70
2018-12-29T19:41:46.561Z,1.70
2018-12-29T19:44:13.558Z,1.70
2018-12-29T19:46:44.779Z,1.70
2018-12-29T19:49:14.617Z,1.70
2018-12-29T19:51:45.403Z,1.70
2018-12-29T19:54:15.315Z,1.70
2018-12-29T19:56:46.034Z,1.70
2018-12-29T19:59:15.812Z,1.70
2018-12-29T20:01:46.727Z,1.70
2018-12-29T20:04:16.606Z,1.50
2018-12-29T20:06:46.131Z,1.50
2018-12-29T20:09:15.538Z,1.50
2018-12-29T20:11:45.049Z,1.50
2018-12-29T20:14:14.756Z,1.60
2018-12-29T20:16:45.579Z,1.60
2018-12-29T20:19:14.989Z,1.60
2018-12-29T20:21:44.432Z,1.60
2018-12-29T20:24:13.845Z,1.60
2018-12-29T20:26:44.559Z,1.60
2018-12-29T20:29:13.982Z,1.60
2018-12-29T20:31:43.491Z,1.70
2018-12-29T20:34:12.973Z,1.60
2018-12-29T20:36:42.496Z,1.60
2018-12-29T20:39:13.468Z,1.60
2018-12-29T20:41:56.961Z,1.60
2018-12-29T20:44:26.678Z,1.60
2018-12-29T20:46:57.092Z,1.80
2018-12-29T20:49:26.774Z,1.70
2018-12-29T20:51:56.495Z,1.70
2018-12-29T20:54:25.907Z,1.70
2018-12-29T20:56:55.558Z,1.70
2018-12-29T20:59:25.224Z,1.80
2018-12-29T21:01:56.210Z,1.80
2018-12-29T21:04:25.834Z,1.80
2018-12-29T21:06:55.588Z,1.70
2018-12-29T21:09:25.359Z,1.70
2018-12-29T21:11:55.118Z,1.80
2018-12-29T21:14:25.156Z,1.80
2018-12-29T21:16:54.818Z,1.80
2018-12-29T21:19:24.351Z,1.70
2018-12-29T21:21:53.887Z,1.80
2018-12-29T21:24:23.880Z,1.80
2018-12-29T21:26:54.944Z,1.80
2018-12-29T21:29:24.575Z,1.80
2018-12-29T21:31:54.244Z,1.90
2018-12-29T21:34:24.018Z,1.80
2018-12-29T21:36:55.018Z,1.90
2018-12-29T21:39:25.011Z,1.90
2018-12-29T21:41:54.685Z,1.90
2018-12-29T21:44:24.321Z,1.90
2018-12-29T21:46:55.167Z,1.90
2018-12-29T21:49:24.674Z,1.90
2018-12-29T21:51:55.555Z,1.90
2018-12-29T21:57:49.638Z,1.90
2018-12-29T22:00:19.502Z,2.00
2018-12-29T22:02:50.530Z,2.00
2018-12-29T22:05:20.274Z,2.00
2018-12-29T22:07:50.914Z,2.00
2018-12-29T22:10:20.692Z,2.00
2018-12-29T22:12:51.646Z,2.00
2018-12-29T22:15:21.403Z,2.00
2018-12-29T22:17:52.187Z,2.00
2018-12-29T22:20:21.705Z,2.00
2018-12-29T22:22:52.483Z,2.00
2018-12-29T22:25:22.288Z,2.00
2018-12-29T22:27:51.699Z,2.00
2018-12-29T22:30:22.413Z,2.10
2018-12-29T22:32:51.931Z,2.10
2018-12-29T22:35:22.614Z,2.00
2018-12-29T22:37:52.068Z,2.10
2018-12-29T22:40:21.480Z,2.10
2018-12-29T22:42:52.603Z,2.10
2018-12-29T22:45:22.010Z,2.10
2018-12-29T22:47:51.535Z,2.10
2018-12-29T22:50:20.944Z,2.10
2018-12-29T22:52:51.856Z,2.10
2018-12-29T22:55:21.575Z,2.10
2018-12-29T22:57:52.295Z,2.10
2018-12-29T23:00:29.048Z,2.00
2018-12-29T23:02:59.854Z,2.00
2018-12-29T23:05:30.054Z,2.00
2018-12-29T23:07:59.759Z,2.00
2018-12-29T23:10:30.835Z,2.10
2018-12-29T23:13:00.863Z,2.00
2018-12-29T23:15:30.444Z,2.00
2018-12-29T23:17:59.956Z,2.00
2018-12-29T23:20:29.367Z,2.00
2018-12-29T23:22:58.812Z,2.00
2018-12-29T23:25:28.298Z,2.00
2018-12-29T23:27:57.820Z,2.00
2018-12-29T23:30:28.504Z,2.00
2018-12-29T23:32:57.958Z,2.00
2018-12-29T23:35:30.597Z,2.00
2018-12-29T23:38:00.095Z,2.00
2018-12-29T23:40:29.574Z,2.00
2018-12-29T23:42:58.982Z,2.10
2018-12-29T23:45:28.894Z,2.00
2018-12-29T23:47:58.383Z,2.10
2018-12-29T23:50:29.368Z,2.10
2018-12-29T23:52:59.451Z,2.10
2018-12-29T23:55:30.936Z,2.10
2018-12-29T23:58:00.414Z,2.10
